(°C)
(°C)
-2°
-1°
DDN
DDN
DNy
DNy
DDN
DDN
DDN
(km/h)
14-26
17-24
16-24
14-21
13-18
13-22
12-22
(mm)
0
0
0
0
0.6
1.1
0
(%)
0
0
5
25
47
54
26

Napfelkelte

/ -39.4°
sun-icon
UV 1
07:18
16:01
Hold (fogyó sarló) (320°)
03:14
14:24

METAR Pozsonyivánka (LZIB)-ért

Idő Feltételek Hőmérséklet/
Harmatpont
Szél Látási viszonyok Időjárás Felhők Légnyomás Módosítás Nyers
VFR 3°C / 2°C 10º 3kt >10km - Clouds and Visibility OK 1000 No Significant change LZIB 011830Z 01003KT CAVOK 03/02 Q1000 NOSIG
VFR 4°C / 3°C variable 2kt >10km - Clouds and Visibility OK 1000 No Significant change LZIB 011800Z VRB02KT CAVOK 04/03 Q1000 NOSIG
VFR 5°C / 3°C 360º 3kt >10km - Clouds and Visibility OK 1000 No Significant change LZIB 011730Z 36003KT CAVOK 05/03 Q1000 NOSIG
VFR 5°C / 3°C 30º variable 280º to 060º 3kt >10km - Clouds and Visibility OK 1001 No Significant change LZIB 011700Z 03003KT 280V060 CAVOK 05/03 Q1001 NOSIG
VFR 5°C / 3°C 20º 5kt >10km - Clouds and Visibility OK 1001 No Significant change LZIB 011630Z 02005KT CAVOK 05/03 Q1001 NOSIG
VFR 5°C / 3°C variable 2kt >10km - Clouds and Visibility OK 1001 No Significant change LZIB 011600Z VRB02KT CAVOK 05/03 Q1001 NOSIG
VFR 5°C / 3°C 30º 5kt >10km - Clouds and Visibility OK 1002 No Significant change LZIB 011530Z 03005KT CAVOK 05/03 Q1002 NOSIG
VFR 5°C / 3°C 140º 4kt >10km - Clouds and Visibility OK 1002 No Significant change LZIB 011500Z 14004KT CAVOK 05/03 Q1002 NOSIG
VFR 5°C / 3°C 130º 4kt >10km - Clouds and Visibility OK 1003 No Significant change LZIB 011430Z 13004KT CAVOK 05/03 Q1003 NOSIG
VFR 6°C / 3°C 170º variable 130º to 200º 5kt >10km - Few Clouds 2000ft 1003 No Significant change LZIB 011400Z 17005KT 130V200 9999 FEW020 06/03 Q1003 NOSIG
VFR 6°C / 3°C 160º variable 130º to 200º 3kt >10km - Few Clouds 1000ft 1004 No Significant change LZIB 011330Z 16003KT 130V200 9999 FEW010 06/03 Q1004 NOSIG
VFR 6°C / 2°C 180º 8kt >10km - Few Clouds 1000ft 1004 No Significant change LZIB 011300Z 18008KT 9999 FEW010 06/02 Q1004 NOSIG
VFR 6°C / 3°C 190º 9kt >10km Light Rain 1.00mm precipitation Vertical Visibility of 0ft. 1004 No Significant change LZIB 011230Z 19009KT 9999 -RA FEW006 06/03 Q1004 NOSIG
VFR 6°C / 4°C 180º 8kt >10km Light Rain 1.00mm precipitation Vertical Visibility of 0ft. 1005 No Significant change LZIB 011200Z 18008KT 9999 -RA FEW006 06/04 Q1005 NOSIG
VFR 6°C / 5°C 200º 8kt >10km Light Rain 1.00mm precipitation Vertical Visibility of 0ft. 1005 No Significant change LZIB 011130Z 20008KT 9999 -RA FEW005 06/05 Q1005 NOSIG
VFR 6°C / 5°C 180º 9kt >10km Light Rain 1.00mm precipitation Vertical Visibility of 0ft. 1006 No Significant change LZIB 011100Z 18009KT 9999 -RA FEW005 06/05 Q1006 NOSIG
VFR 6°C / 5°C 210º 6kt >10km Light Rain 1.00mm precipitation Vertical Visibility of 0ft.
Scattered Clouds 4900ft
1006 No Significant change LZIB 011030Z 21006KT 9999 -RA FEW005 SCT049 06/05 Q1006 NOSIG
VFR 6°C / 6°C 210º variable 180º to 240º 4kt >10km Light Rain 1.00mm precipitation Vertical Visibility of 0ft.
Scattered Clouds 1400ft
1006 No Significant change LZIB 011000Z 21004KT 180V240 9999 -RA FEW005 SCT014 06/06 Q1006 NOSIG
VFR 6°C / 5°C 220º 4kt >10km Light Rain 1.00mm precipitation Vertical Visibility of 0ft. 1007 No Significant change LZIB 010930Z 22004KT 9999 -RA FEW004 06/05 Q1007 NOSIG
VFR 6°C / 5°C 220º 6kt >10km Light Rain 1.00mm precipitation Vertical Visibility of 0ft.
Scattered Clouds 1500ft
Broken Clouds 4900ft
1007 No Significant change LZIB 010900Z 22006KT 9999 -RA FEW004 SCT015 BKN049 06/05 Q1007 NOSIG
MVFR 6°C / 5°C 210º 5kt 8000m Light Rain 1.00mm precipitation Vertical Visibility of 0ft.
Scattered Clouds 2500ft
Overcast 4500ft
1007 No Significant change LZIB 010830Z 21005KT 8000 -RA FEW014 SCT025 OVC045 06/05 Q1007 NOSIG
MVFR 5°C / 4°C 220º 5kt 8000m Light Rain 1.00mm precipitation Vertical Visibility of 0ft.
Scattered Clouds 2700ft
Overcast 4200ft
1008 No Significant change LZIB 010800Z 22005KT 8000 -RA FEW015 SCT027 OVC042 05/04 Q1008 NOSIG
VFR 6°C / 4°C 240º 6kt >10km - Scattered Clouds 2500ft
Broken Clouds 4700ft
1008 No Significant change LZIB 010730Z 24006KT 9999 SCT025 BKN047 06/04 Q1008 NOSIG
VFR 6°C / 3°C 230º 8kt >10km Light Rain 1.00mm precipitation Vertical Visibility of 0ft.
Broken Clouds 4700ft
1008 No Significant change LZIB 010700Z 23008KT 9999 -RA FEW020 BKN047 06/03 Q1008 NOSIG

VFR

3°C / 2°C

[Több]
Szél 10º 3kt
Látási viszonyok >10km
Időjárás -
Felhők Clouds and Visibility OK
Légnyomás 1000
Módosítás No Significant change
Nyers LZIB 011830Z 01003KT CAVOK 03/02 Q1000 NOSIG

VFR

4°C / 3°C

[Több]
Szél variable 2kt
Látási viszonyok >10km
Időjárás -
Felhők Clouds and Visibility OK
Légnyomás 1000
Módosítás No Significant change
Nyers LZIB 011800Z VRB02KT CAVOK 04/03 Q1000 NOSIG

VFR

5°C / 3°C

[Több]
Szél 360º 3kt
Látási viszonyok >10km
Időjárás -
Felhők Clouds and Visibility OK
Légnyomás 1000
Módosítás No Significant change
Nyers LZIB 011730Z 36003KT CAVOK 05/03 Q1000 NOSIG

VFR

5°C / 3°C

[Több]
Szél 30º variable 280º to 060º 3kt
Látási viszonyok >10km
Időjárás -
Felhők Clouds and Visibility OK
Légnyomás 1001
Módosítás No Significant change
Nyers LZIB 011700Z 03003KT 280V060 CAVOK 05/03 Q1001 NOSIG

VFR

5°C / 3°C

[Több]
Szél 20º 5kt
Látási viszonyok >10km
Időjárás -
Felhők Clouds and Visibility OK
Légnyomás 1001
Módosítás No Significant change
Nyers LZIB 011630Z 02005KT CAVOK 05/03 Q1001 NOSIG

VFR

5°C / 3°C

[Több]
Szél variable 2kt
Látási viszonyok >10km
Időjárás -
Felhők Clouds and Visibility OK
Légnyomás 1001
Módosítás No Significant change
Nyers LZIB 011600Z VRB02KT CAVOK 05/03 Q1001 NOSIG

VFR

5°C / 3°C

[Több]
Szél 30º 5kt
Látási viszonyok >10km
Időjárás -
Felhők Clouds and Visibility OK
Légnyomás 1002
Módosítás No Significant change
Nyers LZIB 011530Z 03005KT CAVOK 05/03 Q1002 NOSIG

VFR

5°C / 3°C

[Több]
Szél 140º 4kt
Látási viszonyok >10km
Időjárás -
Felhők Clouds and Visibility OK
Légnyomás 1002
Módosítás No Significant change
Nyers LZIB 011500Z 14004KT CAVOK 05/03 Q1002 NOSIG

VFR

5°C / 3°C

[Több]
Szél 130º 4kt
Látási viszonyok >10km
Időjárás -
Felhők Clouds and Visibility OK
Légnyomás 1003
Módosítás No Significant change
Nyers LZIB 011430Z 13004KT CAVOK 05/03 Q1003 NOSIG

VFR

6°C / 3°C

[Több]
Szél 170º variable 130º to 200º 5kt
Látási viszonyok >10km
Időjárás -
Felhők Few Clouds 2000ft
Légnyomás 1003
Módosítás No Significant change
Nyers LZIB 011400Z 17005KT 130V200 9999 FEW020 06/03 Q1003 NOSIG

VFR

6°C / 3°C

[Több]
Szél 160º variable 130º to 200º 3kt
Látási viszonyok >10km
Időjárás -
Felhők Few Clouds 1000ft
Légnyomás 1004
Módosítás No Significant change
Nyers LZIB 011330Z 16003KT 130V200 9999 FEW010 06/03 Q1004 NOSIG

VFR

6°C / 2°C

[Több]
Szél 180º 8kt
Látási viszonyok >10km
Időjárás -
Felhők Few Clouds 1000ft
Légnyomás 1004
Módosítás No Significant change
Nyers LZIB 011300Z 18008KT 9999 FEW010 06/02 Q1004 NOSIG

VFR

6°C / 3°C

[Több]
Szél 190º 9kt
Látási viszonyok >10km
Időjárás Light Rain 1.00mm precipitation
Felhők Vertical Visibility of 0ft.
Légnyomás 1004
Módosítás No Significant change
Nyers LZIB 011230Z 19009KT 9999 -RA FEW006 06/03 Q1004 NOSIG

VFR

6°C / 4°C

[Több]
Szél 180º 8kt
Látási viszonyok >10km
Időjárás Light Rain 1.00mm precipitation
Felhők Vertical Visibility of 0ft.
Légnyomás 1005
Módosítás No Significant change
Nyers LZIB 011200Z 18008KT 9999 -RA FEW006 06/04 Q1005 NOSIG

VFR

6°C / 5°C

[Több]
Szél 200º 8kt
Látási viszonyok >10km
Időjárás Light Rain 1.00mm precipitation
Felhők Vertical Visibility of 0ft.
Légnyomás 1005
Módosítás No Significant change
Nyers LZIB 011130Z 20008KT 9999 -RA FEW005 06/05 Q1005 NOSIG

VFR

6°C / 5°C

[Több]
Szél 180º 9kt
Látási viszonyok >10km
Időjárás Light Rain 1.00mm precipitation
Felhők Vertical Visibility of 0ft.
Légnyomás 1006
Módosítás No Significant change
Nyers LZIB 011100Z 18009KT 9999 -RA FEW005 06/05 Q1006 NOSIG

VFR

6°C / 5°C

[Több]
Szél 210º 6kt
Látási viszonyok >10km
Időjárás Light Rain 1.00mm precipitation
Felhők Vertical Visibility of 0ft.
Scattered Clouds 4900ft
Légnyomás 1006
Módosítás No Significant change
Nyers LZIB 011030Z 21006KT 9999 -RA FEW005 SCT049 06/05 Q1006 NOSIG

VFR

6°C / 6°C

[Több]
Szél 210º variable 180º to 240º 4kt
Látási viszonyok >10km
Időjárás Light Rain 1.00mm precipitation
Felhők Vertical Visibility of 0ft.
Scattered Clouds 1400ft
Légnyomás 1006
Módosítás No Significant change
Nyers LZIB 011000Z 21004KT 180V240 9999 -RA FEW005 SCT014 06/06 Q1006 NOSIG

VFR

6°C / 5°C

[Több]
Szél 220º 4kt
Látási viszonyok >10km
Időjárás Light Rain 1.00mm precipitation
Felhők Vertical Visibility of 0ft.
Légnyomás 1007
Módosítás No Significant change
Nyers LZIB 010930Z 22004KT 9999 -RA FEW004 06/05 Q1007 NOSIG

VFR

6°C / 5°C

[Több]
Szél 220º 6kt
Látási viszonyok >10km
Időjárás Light Rain 1.00mm precipitation
Felhők Vertical Visibility of 0ft.
Scattered Clouds 1500ft
Broken Clouds 4900ft
Légnyomás 1007
Módosítás No Significant change
Nyers LZIB 010900Z 22006KT 9999 -RA FEW004 SCT015 BKN049 06/05 Q1007 NOSIG

MVFR

6°C / 5°C

[Több]
Szél 210º 5kt
Látási viszonyok 8000m
Időjárás Light Rain 1.00mm precipitation
Felhők Vertical Visibility of 0ft.
Scattered Clouds 2500ft
Overcast 4500ft
Légnyomás 1007
Módosítás No Significant change
Nyers LZIB 010830Z 21005KT 8000 -RA FEW014 SCT025 OVC045 06/05 Q1007 NOSIG

MVFR

5°C / 4°C

[Több]
Szél 220º 5kt
Látási viszonyok 8000m
Időjárás Light Rain 1.00mm precipitation
Felhők Vertical Visibility of 0ft.
Scattered Clouds 2700ft
Overcast 4200ft
Légnyomás 1008
Módosítás No Significant change
Nyers LZIB 010800Z 22005KT 8000 -RA FEW015 SCT027 OVC042 05/04 Q1008 NOSIG

VFR

6°C / 4°C

[Több]
Szél 240º 6kt
Látási viszonyok >10km
Időjárás -
Felhők Scattered Clouds 2500ft
Broken Clouds 4700ft
Légnyomás 1008
Módosítás No Significant change
Nyers LZIB 010730Z 24006KT 9999 SCT025 BKN047 06/04 Q1008 NOSIG

VFR

6°C / 3°C

[Több]
Szél 230º 8kt
Látási viszonyok >10km
Időjárás Light Rain 1.00mm precipitation
Felhők Vertical Visibility of 0ft.
Broken Clouds 4700ft
Légnyomás 1008
Módosítás No Significant change
Nyers LZIB 010700Z 23008KT 9999 -RA FEW020 BKN047 06/03 Q1008 NOSIG

TAF Pozsonyivánka (LZIB)-ért

From till


From till Wind variable 2kt. Visibility 10km or more. Nil Significant Cloud.
Becoming from till Wind variable 2kt. Visibility 10km or more. Broken Clouds 3000ft.
With 30% probability, Temporarly from till Wind variable 2kt. Visibility 3000m. Light Rain Mist . Scattered Clouds 300ft. Broken Clouds 1300ft. Overcast 2000ft.
Becoming from till Wind 240º 7kt. Visibility 10km or more. Broken Clouds 3000ft.
With 30% probability, Temporarly from till Wind variable 2kt. Visibility 2800m. Mist . Broken Clouds 800ft.

Nyers: TAF LZIB 011700Z 0118/0218 VRB02KT CAVOK BECMG 0120/0122 9999 BKN030 PROB30 TEMPO 0121/0202 VRB02KT 3000 -RA BR SCT003 BKN013 OVC020 BECMG 0201/0203 24007KT PROB30 TEMPO 0208/0218 VRB02KT 2800 BR BKN008

Aktuális műholdas és esőképek ezen a helyen: Pozsonyivánka, Szlovákia

A helyszín jelölő a következő helyen van elhelyezve: Pozsonyivánka. [Több]

A valós idejű műholdas kép ötvözi a nappali látható fényt az éjszakai infravörös sugárzással. Éjjel a kép nem sötét, mivel az infravörös sugárzás képes érzékelni a hőmérséklet-különbségeket. Sajnos az alacsony felhőket és a ködöt nehéz megkülönböztetni a talaj hőmérsékletétől, így az éjszaka folyamán szinte láthatatlanok lehetnek. A Meteosat európai műholdképei valós időben frissülnek minden 5 percben. A GOES-16/GOES-17 (Észak- és Dél-Amerika) és Himawari (Ázsia) képei 10 percenként frissülnek.

A csapadékot radarok és műholdak segítségével határozzák meg. A műholdak által mért éjjeli csapadék becslése kevésbé pontos, mint a nappali. A narancssárga keresztek jelölik azokat a helyeket, ahol villámlás észlelhető (Európa felett).

Minden jog fenntartva 2021 EUMETSAT / meteoblue. nowcast által biztosított villámlással kapcsolatos adatok.

Radarkép és ultrarövid távú csapadék-előrejelzés a következő helyhez: Pozsonyivánka

Szitáló eső
Enyhe
Mérsékelt
Erős
Nagyon nehéz
Jégeső

A helyzetjelző helye: Pozsonyivánka. Ez az animáció bemutatja a csapadékradart az elmúlt órára vonatkozóan, valamint előrejelzést az elkövetkező 1 órára. A szitáló eső vagy enyhe hóesés láthatatlan lehet a radar számára. A csapadék intenzitása színkóddal van jelölve, a világoskéktől a narancssárgáig.